createdAt,value
2023-04-01T00:00:22.273Z,8.70
2023-04-01T00:00:55.745Z,8.70
2023-04-01T00:01:28.516Z,8.70
2023-04-01T00:02:01.354Z,8.70
2023-04-01T00:02:33.396Z,8.70
2023-04-01T00:03:05.952Z,8.70
2023-04-01T00:03:38.974Z,8.70
2023-04-01T00:04:10.885Z,8.70
2023-04-01T00:04:44.286Z,8.70
2023-04-01T00:05:17.610Z,8.70
2023-04-01T00:05:49.914Z,8.70
2023-04-01T00:06:21.802Z,8.70
2023-04-01T00:06:54.703Z,8.70
2023-04-01T00:07:26.518Z,8.60
2023-04-01T00:08:02.777Z,8.70
2023-04-01T00:08:35.766Z,8.60
2023-04-01T00:09:07.594Z,8.60
2023-04-01T00:09:39.430Z,8.60
2023-04-01T00:10:14.621Z,8.60
2023-04-01T00:10:46.617Z,8.60
2023-04-01T00:11:20.475Z,8.60
2023-04-01T00:11:53.579Z,8.60
2023-04-01T00:12:26.081Z,8.60
2023-04-01T00:12:57.949Z,8.60
2023-04-01T00:13:30.727Z,8.60
2023-04-01T00:14:02.532Z,8.60
2023-04-01T00:14:34.374Z,8.50
2023-04-01T00:15:10.444Z,8.50
2023-04-01T00:15:43.069Z,8.50
2023-04-01T00:16:53.299Z,8.50
2023-04-01T00:17:25.476Z,8.50
2023-04-01T00:17:57.495Z,8.60
2023-04-01T00:18:30.337Z,8.60
2023-04-01T00:19:02.141Z,8.60
2023-04-01T00:19:34.173Z,8.60
2023-04-01T00:20:10.202Z,8.60
2023-04-01T00:20:45.741Z,8.60
2023-04-01T00:21:17.979Z,8.50
2023-04-01T00:21:50.770Z,8.50
2023-04-01T00:22:23.016Z,8.50
2023-04-01T00:22:54.878Z,8.50
2023-04-01T00:23:27.046Z,8.50
2023-04-01T00:24:00.143Z,8.70
2023-04-01T00:24:32.003Z,8.60
2023-04-01T00:25:05.240Z,8.60
2023-04-01T00:25:38.259Z,8.60
2023-04-01T00:26:10.477Z,8.50
2023-04-01T00:26:44.875Z,8.50
2023-04-01T00:27:16.954Z,8.50
2023-04-01T00:27:48.784Z,8.50
2023-04-01T00:28:22.232Z,8.50
2023-04-01T00:28:54.142Z,8.50
2023-04-01T00:29:30.133Z,8.50
2023-04-01T00:30:02.100Z,8.50
2023-04-01T00:30:34.047Z,8.50
2023-04-01T00:31:07.289Z,8.50
2023-04-01T00:31:40.490Z,8.50
2023-04-01T00:32:12.404Z,8.50
2023-04-01T00:32:44.663Z,8.50
2023-04-01T00:33:18.427Z,8.50
2023-04-01T00:33:50.430Z,8.50
2023-04-01T00:34:22.262Z,8.50
2023-04-01T00:34:55.337Z,8.50
2023-04-01T00:35:28.489Z,8.50
2023-04-01T00:36:09.252Z,8.50
2023-04-01T00:36:41.189Z,8.60
2023-04-01T00:37:14.066Z,8.50
2023-04-01T00:37:46.098Z,8.50
2023-04-01T00:38:19.593Z,8.50
2023-04-01T00:38:52.660Z,8.50
2023-04-01T00:39:24.609Z,8.50
2023-04-01T00:39:56.863Z,8.50
2023-04-01T00:40:31.856Z,8.50
2023-04-01T00:41:03.852Z,8.50
2023-04-01T00:41:36.338Z,8.50
2023-04-01T00:42:10.917Z,8.40
2023-04-01T00:42:42.735Z,8.50
2023-04-01T00:43:18.718Z,8.50
2023-04-01T00:43:52.018Z,8.50
2023-04-01T00:44:30.998Z,8.50
2023-04-01T00:45:31.401Z,8.50
2023-04-01T00:46:06.134Z,8.50
2023-04-01T00:46:38.975Z,8.40
2023-04-01T00:47:11.189Z,8.50
2023-04-01T00:47:43.121Z,8.50
2023-04-01T00:48:19.269Z,8.50
2023-04-01T00:48:54.716Z,8.50
2023-04-01T00:49:30.771Z,8.40
2023-04-01T00:50:03.719Z,8.50
2023-04-01T00:50:39.331Z,8.50
2023-04-01T00:51:16.198Z,8.40
2023-04-01T00:51:51.582Z,8.40
2023-04-01T00:52:26.741Z,8.40
2023-04-01T00:53:01.147Z,8.40
2023-04-01T00:53:35.651Z,8.40
2023-04-01T00:54:10.267Z,8.50
2023-04-01T00:54:44.252Z,8.50
2023-04-01T00:55:17.875Z,8.50
2023-04-01T00:55:55.831Z,8.50
2023-04-01T00:56:32.274Z,8.50
2023-04-01T00:57:09.291Z,8.50
2023-04-01T00:57:44.281Z,8.50
2023-04-01T00:58:21.201Z,8.50
2023-04-01T00:58:58.686Z,8.50
2023-04-01T00:59:33.707Z,8.40
2023-04-01T01:00:08.198Z,8.40
2023-04-01T01:00:41.087Z,8.40
2023-04-01T01:01:13.082Z,8.50
2023-04-01T01:01:44.945Z,8.50
2023-04-01T01:02:18.512Z,8.50
2023-04-01T01:02:52.040Z,8.50
2023-04-01T01:03:23.956Z,8.50
2023-04-01T01:03:56.882Z,8.50
2023-04-01T01:04:30.447Z,8.50
2023-04-01T01:05:02.831Z,8.50
2023-04-01T01:05:49.760Z,8.50
2023-04-01T01:06:39.945Z,8.60
2023-04-01T01:07:21.921Z,8.50
2023-04-01T01:08:02.410Z,8.50
2023-04-01T01:08:51.427Z,8.50
2023-04-01T01:09:33.435Z,8.50
2023-04-01T01:10:11.388Z,8.60
2023-04-01T01:10:48.262Z,8.60
2023-04-01T01:11:25.638Z,8.60
2023-04-01T01:12:07.241Z,8.60
2023-04-01T01:12:45.700Z,8.60
2023-04-01T01:13:25.026Z,8.50
2023-04-01T01:14:02.294Z,8.50
2023-04-01T01:14:50.258Z,8.60
2023-04-01T01:15:25.716Z,8.60
2023-04-01T01:16:01.458Z,8.50
2023-04-01T01:16:42.164Z,8.60
2023-04-01T01:17:23.271Z,8.60
2023-04-01T01:18:04.761Z,8.60
2023-04-01T01:18:42.460Z,8.60
2023-04-01T01:19:34.767Z,8.70
2023-04-01T01:20:31.816Z,8.60
2023-04-01T01:21:41.904Z,8.60
2023-04-01T01:22:45.507Z,8.60
2023-04-01T01:24:00.418Z,8.60
2023-04-01T01:24:53.380Z,8.60
2023-04-01T01:25:39.029Z,8.70
2023-04-01T01:26:36.451Z,8.60
2023-04-01T01:27:11.678Z,8.60
2023-04-01T01:27:51.555Z,8.60
2023-04-01T01:28:37.120Z,8.70
2023-04-01T01:29:19.167Z,8.60
2023-04-01T01:30:22.159Z,8.70
2023-04-01T01:31:01.429Z,8.70
2023-04-01T01:31:38.367Z,8.70
2023-04-01T01:32:25.293Z,8.70
2023-04-01T01:33:08.239Z,8.70
2023-04-01T01:33:58.206Z,8.70
2023-04-01T01:34:35.852Z,8.70
2023-04-01T01:35:20.120Z,8.70
2023-04-01T01:35:55.950Z,8.60
2023-04-01T01:36:32.061Z,8.60
2023-04-01T01:37:11.237Z,8.60
2023-04-01T01:37:47.662Z,8.60
2023-04-01T01:38:23.010Z,8.60
2023-04-01T01:38:56.725Z,8.60
2023-04-01T01:39:32.606Z,8.60
2023-04-01T01:40:08.876Z,8.70
2023-04-01T01:40:46.147Z,8.70
2023-04-01T01:41:19.332Z,8.70
2023-04-01T01:41:51.339Z,8.70
2023-04-01T01:42:27.581Z,8.70
2023-04-01T01:43:05.413Z,8.70
2023-04-01T01:43:41.409Z,8.80
2023-04-01T01:44:17.158Z,8.80
2023-04-01T01:44:51.545Z,8.70
2023-04-01T01:45:25.882Z,8.70
2023-04-01T01:46:01.711Z,8.70
2023-04-01T01:46:34.506Z,8.70
2023-04-01T01:47:06.731Z,8.70
2023-04-01T01:47:39.956Z,8.70
2023-04-01T01:48:12.995Z,8.70
2023-04-01T01:48:46.825Z,8.70
2023-04-01T01:49:20.982Z,8.70
2023-04-01T01:49:54.162Z,8.60
2023-04-01T01:50:28.349Z,8.60
2023-04-01T01:51:01.992Z,8.60
2023-04-01T01:51:34.560Z,8.60
2023-04-01T01:52:06.352Z,8.60
2023-04-01T01:52:39.219Z,8.60
2023-04-01T01:53:13.231Z,8.50
2023-04-01T01:53:45.241Z,8.60
2023-04-01T01:54:19.688Z,8.60
2023-04-01T01:54:53.373Z,8.60
2023-04-01T01:55:29.471Z,8.60
2023-04-01T01:56:01.610Z,8.60
2023-04-01T01:56:36.798Z,8.60
2023-04-01T01:57:10.652Z,8.60
2023-04-01T01:57:45.152Z,8.60
2023-04-01T01:58:24.183Z,8.70
2023-04-01T01:59:00.370Z,8.70
2023-04-01T01:59:36.178Z,8.70
2023-04-01T02:00:14.430Z,8.60
2023-04-01T02:00:51.564Z,8.60
2023-04-01T02:01:27.100Z,8.60
2023-04-01T02:02:01.125Z,8.60
2023-04-01T02:02:33.280Z,8.70
2023-04-01T02:03:06.032Z,8.60
2023-04-01T02:03:41.184Z,8.60
2023-04-01T02:04:15.781Z,8.60
2023-04-01T02:04:48.154Z,8.60
2023-04-01T02:05:23.302Z,8.60
2023-04-01T02:06:00.991Z,8.70
2023-04-01T02:06:38.125Z,8.70
2023-04-01T02:07:13.929Z,8.70
2023-04-01T02:07:52.083Z,8.70
2023-04-01T02:08:28.521Z,8.70
2023-04-01T02:09:03.938Z,8.60
2023-04-01T02:09:37.610Z,8.60
2023-04-01T02:10:10.535Z,8.60
2023-04-01T02:10:46.398Z,8.60
2023-04-01T02:11:23.663Z,8.60
2023-04-01T02:11:59.875Z,8.60
2023-04-01T02:12:32.346Z,8.60
2023-04-01T02:13:08.796Z,8.60
2023-04-01T02:13:46.718Z,8.60
2023-04-01T02:14:21.144Z,8.60
2023-04-01T02:14:55.662Z,8.60
2023-04-01T02:15:32.009Z,8.60
2023-04-01T02:16:09.961Z,8.60
2023-04-01T02:16:46.830Z,8.60
2023-04-01T02:17:22.189Z,8.60
2023-04-01T02:17:55.146Z,8.60
2023-04-01T02:18:28.907Z,8.60
2023-04-01T02:19:03.529Z,8.70
2023-04-01T02:19:39.170Z,8.70
2023-04-01T02:20:16.372Z,8.50
2023-04-01T02:20:50.566Z,8.60
2023-04-01T02:21:27.456Z,8.70
2023-04-01T02:22:02.416Z,8.60
2023-04-01T02:22:38.981Z,8.70
2023-04-01T02:23:12.014Z,8.70
2023-04-01T02:23:44.556Z,8.70
2023-04-01T02:24:17.495Z,8.70
2023-04-01T02:24:51.490Z,8.70
2023-04-01T02:25:26.957Z,8.70
2023-04-01T02:25:59.984Z,8.70
2023-04-01T02:26:32.066Z,8.70
2023-04-01T02:27:04.689Z,8.60
2023-04-01T02:27:37.978Z,8.70
2023-04-01T02:28:11.222Z,8.70
2023-04-01T02:28:46.232Z,8.60
2023-04-01T02:29:22.397Z,8.60
2023-04-01T02:29:54.555Z,8.60
2023-04-01T02:30:29.799Z,8.60
2023-04-01T02:31:03.851Z,8.60
2023-04-01T02:31:36.126Z,8.60
2023-04-01T02:32:09.272Z,8.60
2023-04-01T02:32:42.650Z,8.60
2023-04-01T02:33:14.718Z,8.60
2023-04-01T02:33:47.674Z,8.60
2023-04-01T02:34:21.388Z,8.60
2023-04-01T02:34:53.568Z,8.60
2023-04-01T02:35:26.777Z,8.60
2023-04-01T02:35:59.953Z,8.60
2023-04-01T02:36:35.619Z,8.60
2023-04-01T02:37:08.074Z,8.60
2023-04-01T02:37:43.120Z,8.60
2023-04-01T02:38:16.581Z,8.60
2023-04-01T02:38:50.673Z,8.60
2023-04-01T02:39:23.565Z,8.60
2023-04-01T02:39:55.591Z,8.60
2023-04-01T02:40:27.416Z,8.60
2023-04-01T02:41:02.752Z,8.60
2023-04-01T02:41:40.534Z,8.60
2023-04-01T02:42:12.362Z,8.70
2023-04-01T02:42:45.457Z,8.70
2023-04-01T02:43:17.391Z,8.60
2023-04-01T02:43:50.652Z,8.70
2023-04-01T02:44:23.096Z,8.60
2023-04-01T02:44:54.967Z,8.60
2023-04-01T02:45:27.726Z,8.60
2023-04-01T02:45:59.545Z,8.60
2023-04-01T02:46:31.442Z,8.60
2023-04-01T02:47:04.543Z,8.80
2023-04-01T02:47:36.595Z,8.60
2023-04-01T02:48:08.569Z,8.60
2023-04-01T02:48:41.358Z,8.60
2023-04-01T02:49:13.249Z,8.60
2023-04-01T02:49:45.305Z,8.60
2023-04-01T02:50:18.301Z,8.60
2023-04-01T02:50:50.367Z,8.60
2023-04-01T02:51:22.164Z,8.60
2023-04-01T02:51:56.326Z,8.60
2023-04-01T02:52:29.472Z,8.60
2023-04-01T02:53:01.619Z,8.60
2023-04-01T02:53:34.461Z,8.60
2023-04-01T02:54:06.441Z,8.60
2023-04-01T02:54:38.251Z,8.60
2023-04-01T02:55:11.548Z,8.60
2023-04-01T02:55:43.544Z,8.60
2023-04-01T02:56:15.363Z,8.60
2023-04-01T02:56:48.163Z,8.60
2023-04-01T02:57:20.727Z,8.60
2023-04-01T02:57:52.595Z,8.60
2023-04-01T02:58:25.358Z,8.60
2023-04-01T02:58:57.190Z,8.60
2023-04-01T02:59:29.052Z,8.60
2023-04-01T03:00:01.825Z,8.60
2023-04-01T03:00:33.733Z,8.60
2023-04-01T03:01:05.766Z,8.60
2023-04-01T03:01:38.666Z,8.60
2023-04-01T03:02:10.967Z,8.50
2023-04-01T03:02:42.902Z,8.60
2023-04-01T03:03:16.071Z,8.50
2023-04-01T03:03:48.054Z,8.60
2023-04-01T03:04:19.954Z,8.50
2023-04-01T03:04:52.910Z,8.60
2023-04-01T03:05:24.845Z,8.60
2023-04-01T03:05:57.252Z,8.60
2023-04-01T03:06:30.017Z,8.60
2023-04-01T03:07:03.381Z,8.60
2023-04-01T03:07:35.216Z,8.60
2023-04-01T03:08:07.361Z,8.60
2023-04-01T03:08:40.590Z,8.60
2023-04-01T03:09:12.407Z,8.60
2023-04-01T03:09:44.342Z,8.60
2023-04-01T03:10:17.669Z,8.50
2023-04-01T03:10:49.493Z,8.60
2023-04-01T03:11:22.089Z,8.60
2023-04-01T03:11:53.911Z,8.60
2023-04-01T03:12:26.685Z,8.60
2023-04-01T03:12:58.470Z,8.60
2023-04-01T03:13:30.516Z,8.60
2023-04-01T03:14:03.349Z,8.60
2023-04-01T03:14:35.288Z,8.60
2023-04-01T03:15:10.512Z,8.60
2023-04-01T03:15:44.409Z,8.60
2023-04-01T03:16:16.379Z,8.60
2023-04-01T03:16:48.596Z,8.60
2023-04-01T03:17:21.414Z,8.50
2023-04-01T03:17:53.346Z,8.60
2023-04-01T03:18:25.294Z,8.50
2023-04-01T03:18:59.873Z,8.60
2023-04-01T03:19:31.722Z,8.50
2023-04-01T03:20:05.814Z,8.50
2023-04-01T03:20:38.608Z,8.60
2023-04-01T03:21:18.489Z,8.60
2023-04-01T03:21:50.463Z,8.60
2023-04-01T03:22:24.622Z,8.60
2023-04-01T03:22:56.492Z,8.60
2023-04-01T03:23:28.405Z,8.60
2023-04-01T03:24:01.172Z,8.60
2023-04-01T03:24:33.029Z,8.60
2023-04-01T03:25:06.466Z,8.50
2023-04-01T03:25:39.261Z,8.50
2023-04-01T03:26:11.313Z,8.50
2023-04-01T03:26:43.091Z,8.50
2023-04-01T03:27:15.309Z,8.50
2023-04-01T03:27:48.174Z,8.50
2023-04-01T03:28:20.194Z,8.50
2023-04-01T03:28:52.032Z,8.50
2023-04-01T03:29:24.982Z,8.50
2023-04-01T03:29:56.873Z,8.50
2023-04-01T03:30:30.830Z,8.50
2023-04-01T03:31:02.861Z,8.50
2023-04-01T03:31:36.262Z,8.50
2023-04-01T03:32:08.238Z,8.50
2023-04-01T03:32:40.174Z,8.50
2023-04-01T03:33:13.006Z,8.50
2023-04-01T03:33:44.927Z,8.50
2023-04-01T03:34:16.760Z,8.40
2023-04-01T03:34:48.585Z,8.40
2023-04-01T03:35:21.364Z,8.40
2023-04-01T03:35:53.363Z,8.40
2023-04-01T03:36:26.340Z,8.40
2023-04-01T03:36:58.872Z,8.30
2023-04-01T03:37:32.121Z,8.30
2023-04-01T03:38:05.372Z,8.30
2023-04-01T03:38:37.282Z,8.30
2023-04-01T03:39:09.062Z,8.30
2023-04-01T03:39:43.484Z,8.30
2023-04-01T03:40:16.484Z,8.30
2023-04-01T03:40:48.352Z,8.30
2023-04-01T03:41:21.674Z,8.40
2023-04-01T03:41:53.485Z,8.40
2023-04-01T03:42:25.344Z,8.40
2023-04-01T03:42:58.131Z,8.40
2023-04-01T03:43:30.424Z,8.40
2023-04-01T03:44:02.273Z,8.50
2023-04-01T03:44:35.616Z,8.30
2023-04-01T03:45:08.048Z,8.30
2023-04-01T03:45:45.341Z,8.40
2023-04-01T03:46:19.979Z,8.30
2023-04-01T03:46:51.824Z,8.30
2023-04-01T03:47:23.888Z,8.30
2023-04-01T03:47:56.842Z,8.30
2023-04-01T03:48:28.681Z,8.30
2023-04-01T03:49:00.592Z,8.40
2023-04-01T03:49:33.367Z,8.30
2023-04-01T03:50:06.754Z,8.30
2023-04-01T03:50:38.597Z,8.30
2023-04-01T03:51:11.421Z,8.30
2023-04-01T03:51:44.635Z,8.30
2023-04-01T03:52:16.502Z,8.30
2023-04-01T03:52:51.016Z,8.30
2023-04-01T03:53:23.007Z,8.30
2023-04-01T03:53:54.832Z,8.30
2023-04-01T03:54:27.713Z,8.30
2023-04-01T03:54:59.560Z,8.30
2023-04-01T03:55:31.519Z,8.30
2023-04-01T03:56:06.881Z,8.30
2023-04-01T03:56:39.180Z,8.30
2023-04-01T03:57:11.099Z,8.30
2023-04-01T03:57:43.917Z,8.30
2023-04-01T03:58:16.101Z,8.30
2023-04-01T03:58:47.962Z,8.30
2023-04-01T03:59:20.824Z,8.30
2023-04-01T03:59:52.689Z,8.30
2023-04-01T04:00:24.517Z,8.30
2023-04-01T04:00:57.308Z,8.30
2023-04-01T04:01:29.158Z,8.20
2023-04-01T04:02:01.967Z,8.20
2023-04-01T04:02:33.940Z,8.20
2023-04-01T04:03:07.468Z,8.20
2023-04-01T04:03:40.493Z,8.20
2023-04-01T04:04:13.796Z,8.20
2023-04-01T04:04:47.280Z,8.20
2023-04-01T04:05:20.099Z,8.20
2023-04-01T04:05:51.928Z,8.20
2023-04-01T04:06:24.615Z,8.10
2023-04-01T04:06:57.624Z,8.10
2023-04-01T04:07:29.459Z,8.10
2023-04-01T04:08:02.888Z,8.10
2023-04-01T04:08:35.659Z,8.10
2023-04-01T04:09:07.533Z,8.10
2023-04-01T04:09:39.370Z,8.20
2023-04-01T04:10:12.426Z,8.20
2023-04-01T04:10:44.612Z,8.10
2023-04-01T04:11:16.772Z,8.10
2023-04-01T04:11:49.667Z,8.10
2023-04-01T04:12:21.515Z,8.10
2023-04-01T04:12:53.668Z,8.10
2023-04-01T04:13:26.452Z,8.10
2023-04-01T04:13:58.424Z,8.10
2023-04-01T04:14:30.378Z,8.10
2023-04-01T04:15:03.470Z,8.10
2023-04-01T04:15:35.258Z,8.20
2023-04-01T04:16:07.973Z,8.10
2023-04-01T04:16:40.863Z,8.10
2023-04-01T04:17:16.916Z,8.10
2023-04-01T04:17:49.246Z,8.20
2023-04-01T04:18:22.101Z,8.10
2023-04-01T04:18:53.917Z,8.10
2023-04-01T04:19:26.735Z,8.10
2023-04-01T04:19:58.550Z,8.10
2023-04-01T04:20:30.503Z,8.10
2023-04-01T04:21:03.869Z,8.10
2023-04-01T04:21:35.740Z,8.10
2023-04-01T04:22:07.596Z,8.10
2023-04-01T04:22:40.657Z,8.10
2023-04-01T04:23:13.786Z,8.10
2023-04-01T04:23:45.755Z,8.20
2023-04-01T04:24:18.522Z,8.20
2023-04-01T04:24:50.350Z,8.20
2023-04-01T04:25:22.152Z,8.20
2023-04-01T04:25:59.946Z,8.20
2023-04-01T04:26:31.832Z,8.20
2023-04-01T04:27:03.961Z,8.20
2023-04-01T04:27:37.120Z,8.10
2023-04-01T04:28:08.973Z,8.10
2023-04-01T04:28:41.391Z,8.20
2023-04-01T04:29:14.194Z,8.10
2023-04-01T04:29:46.011Z,8.10
2023-04-01T04:30:18.096Z,8.10
2023-04-01T04:30:50.938Z,8.10
2023-04-01T04:31:24.636Z,8.10
2023-04-01T04:31:56.553Z,8.10
2023-04-01T04:32:30.067Z,8.10
2023-04-01T04:33:02.794Z,8.10
2023-04-01T04:33:35.201Z,8.10
2023-04-01T04:34:08.227Z,8.10
2023-04-01T04:34:40.146Z,8.20
2023-04-01T04:35:12.032Z,8.20
2023-04-01T04:35:44.833Z,8.20
2023-04-01T04:36:17.150Z,8.20
2023-04-01T04:36:50.423Z,8.20
2023-04-01T04:37:22.384Z,8.20
2023-04-01T04:37:54.582Z,8.10
2023-04-01T04:38:29.166Z,8.20
2023-04-01T04:39:03.120Z,8.20
2023-04-01T04:39:35.251Z,8.20
2023-04-01T04:40:09.700Z,8.20
2023-04-01T04:40:42.834Z,8.20
2023-04-01T04:41:16.266Z,8.20
2023-04-01T04:41:49.060Z,8.10
2023-04-01T04:42:20.903Z,8.10
2023-04-01T04:42:52.717Z,8.10
2023-04-01T04:43:25.583Z,8.10
2023-04-01T04:43:57.916Z,8.10
2023-04-01T04:44:29.864Z,8.10
2023-04-01T04:45:02.766Z,8.20
2023-04-01T04:45:34.980Z,8.20
2023-04-01T04:46:07.424Z,8.20
2023-04-01T04:46:40.593Z,8.20
2023-04-01T04:47:12.607Z,8.20
2023-04-01T04:47:44.527Z,8.20
2023-04-01T04:48:19.570Z,8.30
2023-04-01T04:48:51.615Z,8.30
2023-04-01T04:49:24.549Z,8.30
2023-04-01T04:49:56.448Z,8.30
2023-04-01T04:50:28.273Z,8.30
2023-04-01T04:51:01.528Z,8.30
2023-04-01T04:51:34.944Z,8.30
2023-04-01T04:52:06.937Z,8.30
2023-04-01T04:52:39.836Z,8.30
2023-04-01T04:53:12.139Z,8.30
2023-04-01T04:53:45.811Z,8.30
2023-04-01T04:54:18.624Z,8.30
2023-04-01T04:54:50.473Z,8.40
2023-04-01T04:55:22.515Z,8.40
2023-04-01T04:55:55.672Z,8.40
2023-04-01T04:56:27.510Z,8.40
2023-04-01T04:56:59.414Z,8.40
2023-04-01T04:57:32.338Z,8.40
2023-04-01T04:58:04.324Z,8.30
2023-04-01T04:58:36.233Z,8.30
2023-04-01T04:59:09.094Z,8.30
2023-04-01T04:59:41.023Z,8.30
2023-04-01T05:00:13.446Z,8.30
2023-04-01T05:00:46.795Z,8.20
2023-04-01T05:01:19.887Z,8.30
2023-04-01T05:01:51.786Z,8.30
2023-04-01T05:02:24.624Z,8.40
2023-04-01T05:02:56.593Z,8.30
2023-04-01T05:03:28.637Z,8.30
2023-04-01T05:04:01.810Z,8.30
2023-04-01T05:04:36.477Z,8.30
2023-04-01T05:05:08.967Z,8.40
2023-04-01T05:05:41.782Z,8.40
2023-04-01T05:06:15.301Z,8.40
2023-04-01T05:06:47.140Z,8.40
2023-04-01T05:07:19.926Z,8.40
2023-04-01T05:07:51.713Z,8.40
2023-04-01T05:08:23.564Z,8.40
2023-04-01T05:08:58.515Z,8.50
2023-04-01T05:09:30.357Z,8.50
2023-04-01T05:10:02.224Z,8.50
2023-04-01T05:10:35.032Z,8.50
2023-04-01T05:11:43.176Z,8.50
2023-04-01T05:12:16.434Z,8.50
2023-04-01T05:12:48.227Z,8.50
2023-04-01T05:13:20.127Z,8.50
2023-04-01T05:13:52.887Z,8.50
2023-04-01T05:14:24.696Z,8.50
2023-04-01T05:14:56.581Z,8.50
2023-04-01T05:15:29.388Z,8.40
2023-04-01T05:16:01.184Z,8.50
2023-04-01T05:16:32.990Z,8.40
2023-04-01T05:17:04.885Z,8.40
2023-04-01T05:17:37.780Z,8.40
2023-04-01T05:18:09.748Z,8.40
2023-04-01T05:18:41.863Z,8.40
2023-04-01T05:19:14.678Z,8.50
2023-04-01T05:19:46.519Z,8.50
2023-04-01T05:20:18.623Z,8.50
2023-04-01T05:20:55.176Z,8.50
2023-04-01T05:21:27.032Z,8.50
2023-04-01T05:21:58.823Z,8.50
2023-04-01T05:22:31.649Z,8.60
2023-04-01T05:23:03.573Z,8.60
2023-04-01T05:23:35.595Z,8.60
2023-04-01T05:24:11.828Z,8.60
2023-04-01T05:24:43.662Z,8.60
2023-04-01T05:25:15.677Z,8.60
2023-04-01T05:25:48.890Z,8.60
2023-04-01T05:26:20.732Z,8.60
2023-04-01T05:26:52.884Z,8.60
2023-04-01T05:27:26.332Z,8.60
2023-04-01T05:27:58.190Z,8.60
2023-04-01T05:28:30.138Z,8.60
2023-04-01T05:29:02.975Z,8.60
2023-04-01T05:29:35.868Z,8.60
2023-04-01T05:30:08.616Z,8.60
2023-04-01T05:30:43.210Z,8.60
2023-04-01T05:31:15.416Z,8.60
2023-04-01T05:31:47.239Z,8.60
2023-04-01T05:32:20.016Z,8.60
2023-04-01T05:32:51.878Z,8.60
2023-04-01T05:33:23.747Z,8.60
2023-04-01T05:33:57.018Z,8.60
2023-04-01T05:34:28.863Z,8.60
2023-04-01T05:35:00.687Z,8.60
2023-04-01T05:35:33.729Z,8.70
2023-04-01T05:36:10.800Z,8.60
2023-04-01T05:36:44.268Z,8.70
2023-04-01T05:37:16.124Z,8.70
2023-04-01T05:37:47.975Z,8.70
2023-04-01T05:38:20.824Z,8.70
2023-04-01T05:38:56.017Z,8.70
2023-04-01T05:39:29.338Z,8.70
2023-04-01T05:40:02.250Z,8.70
2023-04-01T05:40:34.597Z,8.70
2023-04-01T05:41:06.497Z,8.70
2023-04-01T05:41:41.205Z,8.70
2023-04-01T05:42:13.138Z,8.70
2023-04-01T05:42:44.952Z,8.70
2023-04-01T05:43:17.831Z,8.80
2023-04-01T05:43:49.639Z,8.80
2023-04-01T05:44:21.620Z,8.70
2023-04-01T05:44:54.430Z,8.70
2023-04-01T05:45:26.451Z,8.70
2023-04-01T05:45:58.593Z,8.70
2023-04-01T05:46:30.586Z,8.70
2023-04-01T05:47:03.766Z,8.70
2023-04-01T05:47:35.922Z,8.70
2023-04-01T05:48:07.868Z,8.70
2023-04-01T05:48:41.038Z,8.80
2023-04-01T05:49:12.832Z,8.70
2023-04-01T05:49:44.754Z,8.70
2023-04-01T05:50:17.693Z,8.70
2023-04-01T05:50:49.544Z,8.70
2023-04-01T05:51:21.808Z,8.70
2023-04-01T05:51:54.586Z,8.70
2023-04-01T05:52:26.462Z,8.70
2023-04-01T05:52:58.536Z,8.70
2023-04-01T05:53:31.361Z,8.70
2023-04-01T05:54:05.008Z,8.70
2023-04-01T05:54:38.349Z,8.70
2023-04-01T05:55:11.670Z,8.70
2023-04-01T05:55:43.565Z,8.70
2023-04-01T05:56:15.679Z,8.70
2023-04-01T05:56:48.922Z,8.70
2023-04-01T05:57:21.834Z,8.70
2023-04-01T05:57:53.665Z,8.70
2023-04-01T05:58:26.441Z,8.80
2023-04-01T05:58:58.210Z,8.60
2023-04-01T05:59:32.034Z,8.80
2023-04-01T06:00:05.985Z,8.80
2023-04-01T06:00:38.040Z,8.80
2023-04-01T06:01:15.786Z,8.80
2023-04-01T06:01:49.392Z,8.80
2023-04-01T06:02:21.290Z,8.80
2023-04-01T06:02:53.296Z,8.80
2023-04-01T06:03:26.311Z,8.80
2023-04-01T06:03:58.482Z,8.70
2023-04-01T06:04:37.945Z,8.70
2023-04-01T06:05:18.859Z,8.70
2023-04-01T06:05:50.828Z,8.70
2023-04-01T06:06:26.060Z,8.70
2023-04-01T06:06:58.916Z,8.70
2023-04-01T06:07:30.906Z,8.70
2023-04-01T06:08:10.442Z,8.70
2023-04-01T06:08:43.553Z,8.80
2023-04-01T06:09:17.901Z,8.80
2023-04-01T06:09:51.300Z,8.80
2023-04-01T06:10:35.618Z,8.80
2023-04-01T06:11:19.852Z,8.80
2023-04-01T06:12:30.121Z,8.80
2023-04-01T06:13:07.858Z,8.70
2023-04-01T06:13:59.954Z,8.80
2023-04-01T06:14:41.006Z,8.80
2023-04-01T06:15:24.783Z,8.80
2023-04-01T06:16:05.876Z,8.90
2023-04-01T06:16:54.188Z,8.90
2023-04-01T06:17:44.933Z,8.90
2023-04-01T06:18:46.722Z,8.80
2023-04-01T06:19:31.099Z,8.80
2023-04-01T06:20:14.380Z,8.80
2023-04-01T06:20:56.117Z,8.80
2023-04-01T06:21:43.550Z,8.80
2023-04-01T06:22:50.120Z,8.80
2023-04-01T06:23:47.833Z,8.90
2023-04-01T06:24:39.289Z,8.90
2023-04-01T06:25:38.374Z,8.80
2023-04-01T06:26:26.323Z,8.90
2023-04-01T06:27:08.543Z,8.80
2023-04-01T06:28:02.369Z,8.80
2023-04-01T06:28:48.496Z,8.90
2023-04-01T06:29:37.741Z,8.80
2023-04-01T06:30:25.387Z,8.90
2023-04-01T06:31:07.611Z,8.80
2023-04-01T06:32:22.143Z,8.90
2023-04-01T06:33:08.340Z,8.90
2023-04-01T06:33:54.507Z,8.90
2023-04-01T06:34:48.688Z,8.90
2023-04-01T06:35:39.116Z,8.90
2023-04-01T06:36:26.621Z,8.90
2023-04-01T06:37:12.995Z,9.00
2023-04-01T06:38:08.227Z,8.90
2023-04-01T06:39:04.474Z,9.00
2023-04-01T06:39:52.084Z,8.90
2023-04-01T06:40:50.665Z,9.00
2023-04-01T06:41:43.460Z,9.00
2023-04-01T06:42:23.967Z,9.00
2023-04-01T06:43:06.239Z,9.00
2023-04-01T06:43:51.894Z,9.00
2023-04-01T06:44:33.179Z,9.00
2023-04-01T06:45:18.448Z,9.00
2023-04-01T06:45:56.952Z,8.90
2023-04-01T06:46:41.026Z,8.90
2023-04-01T06:47:32.876Z,9.00
2023-04-01T06:48:21.041Z,9.00
2023-04-01T06:49:07.502Z,9.00
2023-04-01T06:49:51.607Z,9.10
2023-04-01T06:50:27.521Z,9.10
2023-04-01T06:51:09.946Z,9.00
2023-04-01T06:51:53.481Z,9.00
2023-04-01T06:52:32.454Z,9.00
2023-04-01T06:53:12.581Z,9.00
2023-04-01T06:53:51.631Z,9.10
2023-04-01T06:54:31.052Z,9.10
2023-04-01T06:55:18.449Z,9.10
2023-04-01T06:55:54.906Z,9.10
2023-04-01T06:56:30.495Z,9.10
2023-04-01T06:57:09.321Z,9.20
2023-04-01T06:57:46.179Z,9.20
2023-04-01T06:58:23.623Z,9.20
2023-04-01T06:58:58.994Z,9.20
2023-04-01T06:59:34.519Z,9.20
2023-04-01T07:00:16.577Z,9.10
2023-04-01T07:00:52.059Z,9.20
2023-04-01T07:01:32.002Z,9.20
2023-04-01T07:02:17.241Z,9.20
2023-04-01T07:02:59.011Z,9.20
2023-04-01T07:03:34.457Z,9.20
2023-04-01T07:04:13.352Z,9.30
2023-04-01T07:04:49.695Z,9.20
2023-04-01T07:05:21.802Z,9.30
2023-04-01T07:05:58.620Z,9.30
2023-04-01T07:06:35.875Z,9.30
2023-04-01T07:07:17.015Z,9.40
2023-04-01T07:07:52.948Z,9.40
2023-04-01T07:08:28.740Z,9.40
2023-04-01T07:09:06.306Z,9.40
2023-04-01T07:09:42.861Z,9.40
2023-04-01T07:10:20.478Z,9.50
2023-04-01T07:10:57.793Z,9.50
2023-04-01T07:11:32.956Z,9.50
2023-04-01T07:12:13.180Z,9.60
2023-04-01T07:12:50.997Z,9.60
2023-04-01T07:13:25.799Z,9.60
2023-04-01T07:14:03.176Z,9.60
2023-04-01T07:14:39.751Z,9.60
2023-04-01T07:15:19.133Z,9.60
2023-04-01T07:16:00.631Z,9.70
2023-04-01T07:16:35.633Z,9.70
2023-04-01T07:17:14.003Z,9.70
2023-04-01T07:17:48.403Z,9.70
2023-04-01T07:18:27.840Z,9.70
2023-04-01T07:19:04.010Z,9.80
2023-04-01T07:19:43.155Z,9.70
2023-04-01T07:20:20.967Z,9.70
2023-04-01T07:20:55.074Z,9.60
2023-04-01T07:21:32.735Z,9.60
2023-04-01T07:22:15.036Z,9.60
2023-04-01T07:22:49.828Z,9.60
2023-04-01T07:23:25.657Z,9.60
2023-04-01T07:24:02.846Z,9.60
2023-04-01T07:24:37.683Z,9.60
2023-04-01T07:25:16.085Z,9.60
2023-04-01T07:25:52.910Z,9.60
2023-04-01T07:26:27.641Z,9.60
2023-04-01T07:27:01.139Z,9.60
2023-04-01T07:27:33.079Z,9.60
2023-04-01T07:28:08.103Z,9.60
2023-04-01T07:28:39.922Z,9.60
2023-04-01T07:29:14.911Z,9.60
2023-04-01T07:29:46.764Z,9.70
2023-04-01T07:30:21.189Z,9.70
2023-04-01T07:31:08.033Z,9.70
2023-04-01T07:31:55.009Z,9.70
2023-04-01T07:32:41.316Z,9.70
2023-04-01T07:33:20.790Z,9.70
2023-04-01T07:34:03.212Z,9.70
2023-04-01T07:34:40.681Z,9.70
2023-04-01T07:35:22.555Z,9.80
2023-04-01T07:36:00.399Z,9.80
2023-04-01T07:36:39.428Z,9.90
2023-04-01T07:37:15.392Z,9.80
2023-04-01T07:38:00.852Z,9.80
2023-04-01T07:38:45.576Z,9.80
2023-04-01T07:39:29.927Z,9.80
2023-04-01T07:40:16.401Z,9.80
2023-04-01T07:40:56.676Z,9.80
2023-04-01T07:41:41.649Z,9.80
2023-04-01T07:42:25.791Z,9.80
2023-04-01T07:43:39.176Z,9.80
2023-04-01T07:44:17.796Z,9.90
2023-04-01T07:45:00.709Z,9.90
2023-04-01T07:45:39.544Z,9.90
2023-04-01T07:46:24.586Z,10.00
2023-04-01T07:47:16.227Z,10.00
2023-04-01T07:48:04.869Z,10.00
2023-04-01T07:48:43.626Z,10.00
2023-04-01T07:49:18.343Z,10.00
2023-04-01T07:49:59.481Z,10.10
2023-04-01T07:50:33.712Z,10.10
2023-04-01T07:51:17.653Z,10.10
2023-04-01T07:51:59.582Z,10.20
2023-04-01T07:52:42.430Z,10.10
2023-04-01T07:53:21.666Z,10.10
2023-04-01T07:54:03.522Z,10.10
2023-04-01T07:54:45.359Z,10.20